sensor_id;sensor_type;location;lat;lon;timestamp;pressure;altitude;pressure_sealevel;temperature;humidity
83448;BME280;73376;45.472;-73.568;2024-01-25T00:01:54;102404.22;;;-5.98;67.60
83448;BME280;73376;45.472;-73.568;2024-01-25T00:04:20;102390.66;;;-6.12;67.61
83448;BME280;73376;45.472;-73.568;2024-01-25T00:06:46;102389.53;;;-6.06;67.63
83448;BME280;73376;45.472;-73.568;2024-01-25T00:09:12;102398.00;;;-5.98;67.85
83448;BME280;73376;45.472;-73.568;2024-01-25T00:11:38;102380.47;;;-6.02;67.94
83448;BME280;73376;45.472;-73.568;2024-01-25T00:14:04;102362.53;;;-5.99;67.96
83448;BME280;73376;45.472;-73.568;2024-01-25T00:16:30;102357.94;;;-5.95;67.85
83448;BME280;73376;45.472;-73.568;2024-01-25T00:18:56;102315.19;;;-6.11;67.92
83448;BME280;73376;45.472;-73.568;2024-01-25T00:21:22;102333.38;;;-6.02;67.94
83448;BME280;73376;45.472;-73.568;2024-01-25T00:23:48;102333.97;;;-5.95;68.39
83448;BME280;73376;45.472;-73.568;2024-01-25T00:26:14;102280.28;;;-6.24;68.35
83448;BME280;73376;45.472;-73.568;2024-01-25T00:28:40;102331.31;;;-5.95;68.30
83448;BME280;73376;45.472;-73.568;2024-01-25T00:31:06;102327.78;;;-5.96;68.49
83448;BME280;73376;45.472;-73.568;2024-01-25T00:33:32;102283.25;;;-6.11;68.34
83448;BME280;73376;45.472;-73.568;2024-01-25T00:35:58;102311.91;;;-5.97;68.67
83448;BME280;73376;45.472;-73.568;2024-01-25T00:38:27;102303.06;;;-5.98;68.56
83448;BME280;73376;45.472;-73.568;2024-01-25T00:40:54;102283.81;;;-6.04;68.80
83448;BME280;73376;45.472;-73.568;2024-01-25T00:43:20;102274.31;;;-6.10;68.94
83448;BME280;73376;45.472;-73.568;2024-01-25T00:45:46;102297.63;;;-5.96;68.76
83448;BME280;73376;45.472;-73.568;2024-01-25T00:48:13;102284.31;;;-5.96;68.67
83448;BME280;73376;45.472;-73.568;2024-01-25T00:50:39;102241.38;;;-6.07;68.81
83448;BME280;73376;45.472;-73.568;2024-01-25T00:53:05;102261.22;;;-5.96;68.86
83448;BME280;73376;45.472;-73.568;2024-01-25T00:55:31;102208.47;;;-6.25;68.82
83448;BME280;73376;45.472;-73.568;2024-01-25T00:57:58;102258.28;;;-5.91;69.12
83448;BME280;73376;45.472;-73.568;2024-01-25T01:00:26;102257.38;;;-5.90;69.08
83448;BME280;73376;45.472;-73.568;2024-01-25T01:02:53;102244.84;;;-5.88;68.91
83448;BME280;73376;45.472;-73.568;2024-01-25T01:05:20;102216.38;;;-6.05;68.90
83448;BME280;73376;45.472;-73.568;2024-01-25T01:07:46;102216.25;;;-6.02;69.13
83448;BME280;73376;45.472;-73.568;2024-01-25T01:10:12;102237.78;;;-5.89;69.02
83448;BME280;73376;45.472;-73.568;2024-01-25T01:12:39;102248.00;;;-5.80;69.14
83448;BME280;73376;45.472;-73.568;2024-01-25T01:15:05;102219.41;;;-5.93;69.07
83448;BME280;73376;45.472;-73.568;2024-01-25T01:17:32;102237.22;;;-5.77;69.12
83448;BME280;73376;45.472;-73.568;2024-01-25T01:19:58;102205.16;;;-5.92;69.29
83448;BME280;73376;45.472;-73.568;2024-01-25T01:22:24;102227.56;;;-5.79;69.04
83448;BME280;73376;45.472;-73.568;2024-01-25T01:24:50;102193.31;;;-5.87;69.31
83448;BME280;73376;45.472;-73.568;2024-01-25T01:27:16;102209.41;;;-5.71;69.26
83448;BME280;73376;45.472;-73.568;2024-01-25T01:29:42;102179.63;;;-5.79;69.48
83448;BME280;73376;45.472;-73.568;2024-01-25T01:32:08;102186.91;;;-5.83;69.56
83448;BME280;73376;45.472;-73.568;2024-01-25T01:34:36;102214.56;;;-5.68;69.52
83448;BME280;73376;45.472;-73.568;2024-01-25T01:37:02;102203.22;;;-5.72;69.41
83448;BME280;73376;45.472;-73.568;2024-01-25T01:39:28;102176.28;;;-5.65;69.77
83448;BME280;73376;45.472;-73.568;2024-01-25T01:41:56;102165.78;;;-5.68;69.48
83448;BME280;73376;45.472;-73.568;2024-01-25T01:44:22;102177.84;;;-5.61;69.61
83448;BME280;73376;45.472;-73.568;2024-01-25T01:46:48;102161.09;;;-5.63;69.54
83448;BME280;73376;45.472;-73.568;2024-01-25T01:49:18;102154.41;;;-5.72;69.69
83448;BME280;73376;45.472;-73.568;2024-01-25T01:51:45;102174.09;;;-5.57;69.75
83448;BME280;73376;45.472;-73.568;2024-01-25T01:54:11;102182.63;;;-5.51;69.70
83448;BME280;73376;45.472;-73.568;2024-01-25T01:56:37;102181.31;;;-5.42;69.71
83448;BME280;73376;45.472;-73.568;2024-01-25T01:59:09;102165.06;;;-5.55;69.69
83448;BME280;73376;45.472;-73.568;2024-01-25T02:01:35;102180.31;;;-5.39;69.77
83448;BME280;73376;45.472;-73.568;2024-01-25T02:04:01;102148.31;;;-5.57;69.70
83448;BME280;73376;45.472;-73.568;2024-01-25T02:06:27;102169.81;;;-5.42;69.89
83448;BME280;73376;45.472;-73.568;2024-01-25T02:08:53;102151.34;;;-5.47;69.91
83448;BME280;73376;45.472;-73.568;2024-01-25T02:11:24;102165.78;;;-5.34;69.93
83448;BME280;73376;45.472;-73.568;2024-01-25T02:13:50;102154.06;;;-5.30;69.87
83448;BME280;73376;45.472;-73.568;2024-01-25T02:16:19;102162.66;;;-5.25;69.91
83448;BME280;73376;45.472;-73.568;2024-01-25T02:18:46;102143.19;;;-5.27;70.29
83448;BME280;73376;45.472;-73.568;2024-01-25T02:21:15;102139.38;;;-5.21;70.16
83448;BME280;73376;45.472;-73.568;2024-01-25T02:23:44;102129.56;;;-5.20;70.19
83448;BME280;73376;45.472;-73.568;2024-01-25T02:26:10;102130.34;;;-5.18;70.32
83448;BME280;73376;45.472;-73.568;2024-01-25T02:28:41;102106.50;;;-5.21;70.63
83448;BME280;73376;45.472;-73.568;2024-01-25T02:31:08;102111.59;;;-5.17;70.33
83448;BME280;73376;45.472;-73.568;2024-01-25T02:33:33;102109.63;;;-5.13;70.40
83448;BME280;73376;45.472;-73.568;2024-01-25T02:35:59;102114.03;;;-5.12;70.56
83448;BME280;73376;45.472;-73.568;2024-01-25T02:38:31;102109.47;;;-5.10;70.55
83448;BME280;73376;45.472;-73.568;2024-01-25T02:40:57;102100.56;;;-5.09;70.59
83448;BME280;73376;45.472;-73.568;2024-01-25T02:43:23;102092.63;;;-5.11;70.30
83448;BME280;73376;45.472;-73.568;2024-01-25T02:45:49;102090.59;;;-5.06;70.38
83448;BME280;73376;45.472;-73.568;2024-01-25T02:48:15;102065.94;;;-5.11;70.66
83448;BME280;73376;45.472;-73.568;2024-01-25T02:50:41;102071.91;;;-5.06;70.81
83448;BME280;73376;45.472;-73.568;2024-01-25T02:53:07;102059.66;;;-5.10;70.62
83448;BME280;73376;45.472;-73.568;2024-01-25T02:55:33;102066.31;;;-5.01;70.74
83448;BME280;73376;45.472;-73.568;2024-01-25T02:58:01;102047.03;;;-5.06;70.79
83448;BME280;73376;45.472;-73.568;2024-01-25T03:00:27;102058.69;;;-4.91;70.83
83448;BME280;73376;45.472;-73.568;2024-01-25T03:02:56;102043.53;;;-4.91;70.79
83448;BME280;73376;45.472;-73.568;2024-01-25T03:05:22;102037.94;;;-4.86;70.79
83448;BME280;73376;45.472;-73.568;2024-01-25T03:07:48;102032.19;;;-4.94;70.64
83448;BME280;73376;45.472;-73.568;2024-01-25T03:10:16;102014.53;;;-4.97;70.89
83448;BME280;73376;45.472;-73.568;2024-01-25T03:12:42;101991.91;;;-5.06;70.91
83448;BME280;73376;45.472;-73.568;2024-01-25T03:15:11;102029.78;;;-4.83;70.90
83448;BME280;73376;45.472;-73.568;2024-01-25T03:17:37;102026.75;;;-4.77;70.93
83448;BME280;73376;45.472;-73.568;2024-01-25T03:20:04;102024.38;;;-4.82;70.88
83448;BME280;73376;45.472;-73.568;2024-01-25T03:22:30;102018.69;;;-4.91;70.83
83448;BME280;73376;45.472;-73.568;2024-01-25T03:24:56;102036.66;;;-4.79;70.96
83448;BME280;73376;45.472;-73.568;2024-01-25T03:27:24;102002.91;;;-4.96;70.91
83448;BME280;73376;45.472;-73.568;2024-01-25T03:29:50;102030.91;;;-4.71;70.78
83448;BME280;73376;45.472;-73.568;2024-01-25T03:32:16;101997.75;;;-4.83;70.76
83448;BME280;73376;45.472;-73.568;2024-01-25T03:34:42;102033.03;;;-4.62;70.88
83448;BME280;73376;45.472;-73.568;2024-01-25T03:37:09;102024.78;;;-4.58;70.91
83448;BME280;73376;45.472;-73.568;2024-01-25T03:39:35;102027.97;;;-4.51;70.93
83448;BME280;73376;45.472;-73.568;2024-01-25T03:42:01;102026.84;;;-4.47;71.19
83448;BME280;73376;45.472;-73.568;2024-01-25T03:44:27;102010.44;;;-4.55;71.12
83448;BME280;73376;45.472;-73.568;2024-01-25T03:46:55;102019.53;;;-4.43;71.16
83448;BME280;73376;45.472;-73.568;2024-01-25T03:49:21;101996.38;;;-4.59;71.18
83448;BME280;73376;45.472;-73.568;2024-01-25T03:51:48;102031.50;;;-4.35;71.23
83448;BME280;73376;45.472;-73.568;2024-01-25T03:54:15;102031.28;;;-4.32;71.18
83448;BME280;73376;45.472;-73.568;2024-01-25T03:56:44;102025.03;;;-4.31;71.36
83448;BME280;73376;45.472;-73.568;2024-01-25T03:59:10;101998.75;;;-4.38;71.43
83448;BME280;73376;45.472;-73.568;2024-01-25T04:01:45;101995.47;;;-4.28;71.44
83448;BME280;73376;45.472;-73.568;2024-01-25T04:04:13;101973.69;;;-4.36;71.29
83448;BME280;73376;45.472;-73.568;2024-01-25T04:06:42;101990.53;;;-4.19;71.50
83448;BME280;73376;45.472;-73.568;2024-01-25T04:09:09;102005.34;;;-4.14;71.50
83448;BME280;73376;45.472;-73.568;2024-01-25T04:11:37;101963.69;;;-4.32;71.79
83448;BME280;73376;45.472;-73.568;2024-01-25T04:14:04;101988.47;;;-4.14;71.48
83448;BME280;73376;45.472;-73.568;2024-01-25T04:16:30;101981.03;;;-4.09;71.77
83448;BME280;73376;45.472;-73.568;2024-01-25T04:18:59;101936.47;;;-4.23;71.89
83448;BME280;73376;45.472;-73.568;2024-01-25T04:21:26;101966.53;;;-4.05;71.76
83448;BME280;73376;45.472;-73.568;2024-01-25T04:23:52;101939.16;;;-4.09;71.89
83448;BME280;73376;45.472;-73.568;2024-01-25T04:26:18;101945.09;;;-4.03;71.90
83448;BME280;73376;45.472;-73.568;2024-01-25T04:28:44;101945.00;;;-4.02;71.90
83448;BME280;73376;45.472;-73.568;2024-01-25T04:31:10;101885.72;;;-4.37;71.89
83448;BME280;73376;45.472;-73.568;2024-01-25T04:33:38;101927.25;;;-4.03;72.15
83448;BME280;73376;45.472;-73.568;2024-01-25T04:36:05;101930.44;;;-3.96;72.16
83448;BME280;73376;45.472;-73.568;2024-01-25T04:38:31;101914.88;;;-4.04;72.25
83448;BME280;73376;45.472;-73.568;2024-01-25T04:40:57;101922.22;;;-3.93;72.02
83448;BME280;73376;45.472;-73.568;2024-01-25T04:43:24;101905.03;;;-4.03;72.01
83448;BME280;73376;45.472;-73.568;2024-01-25T04:45:50;101919.25;;;-3.89;72.24
83448;BME280;73376;45.472;-73.568;2024-01-25T04:48:16;101887.09;;;-4.01;72.15
83448;BME280;73376;45.472;-73.568;2024-01-25T04:50:42;101892.91;;;-3.95;72.13
83448;BME280;73376;45.472;-73.568;2024-01-25T04:53:08;101900.56;;;-3.89;72.33
83448;BME280;73376;45.472;-73.568;2024-01-25T04:55:34;101876.34;;;-4.00;72.17
83448;BME280;73376;45.472;-73.568;2024-01-25T04:58:00;101890.84;;;-3.90;72.00
83448;BME280;73376;45.472;-73.568;2024-01-25T05:00:26;101870.50;;;-3.92;72.14
83448;BME280;73376;45.472;-73.568;2024-01-25T05:02:52;101870.22;;;-3.88;71.86
83448;BME280;73376;45.472;-73.568;2024-01-25T05:05:18;101880.63;;;-3.83;72.12
83448;BME280;73376;45.472;-73.568;2024-01-25T05:07:46;101872.50;;;-3.82;72.08
83448;BME280;73376;45.472;-73.568;2024-01-25T05:10:12;101824.63;;;-4.13;72.13
83448;BME280;73376;45.472;-73.568;2024-01-25T05:12:38;101878.63;;;-3.79;72.20
83448;BME280;73376;45.472;-73.568;2024-01-25T05:15:07;101861.28;;;-3.87;72.24
83448;BME280;73376;45.472;-73.568;2024-01-25T05:17:33;101884.06;;;-3.81;72.30
83448;BME280;73376;45.472;-73.568;2024-01-25T05:19:59;101871.09;;;-3.87;72.39
83448;BME280;73376;45.472;-73.568;2024-01-25T05:22:25;101888.47;;;-3.80;72.29
83448;BME280;73376;45.472;-73.568;2024-01-25T05:24:51;101867.34;;;-3.85;72.20
83448;BME280;73376;45.472;-73.568;2024-01-25T05:27:17;101881.19;;;-3.78;72.04
83448;BME280;73376;45.472;-73.568;2024-01-25T05:29:43;101866.00;;;-3.77;72.13
83448;BME280;73376;45.472;-73.568;2024-01-25T05:32:09;101855.25;;;-3.76;72.12
83448;BME280;73376;45.472;-73.568;2024-01-25T05:34:37;101821.47;;;-3.91;72.37
83448;BME280;73376;45.472;-73.568;2024-01-25T05:37:03;101837.50;;;-3.77;72.56
83448;BME280;73376;45.472;-73.568;2024-01-25T05:39:29;101827.88;;;-3.79;72.67
83448;BME280;73376;45.472;-73.568;2024-01-25T05:41:55;101817.66;;;-3.87;72.44
83448;BME280;73376;45.472;-73.568;2024-01-25T05:44:21;101853.72;;;-3.66;72.46
83448;BME280;73376;45.472;-73.568;2024-01-25T05:46:47;101853.59;;;-3.64;72.32
83448;BME280;73376;45.472;-73.568;2024-01-25T05:49:16;101835.19;;;-3.69;72.25
83448;BME280;73376;45.472;-73.568;2024-01-25T05:51:42;101822.81;;;-3.70;72.50
83448;BME280;73376;45.472;-73.568;2024-01-25T05:54:10;101847.88;;;-3.58;72.40
83448;BME280;73376;45.472;-73.568;2024-01-25T05:56:38;101828.81;;;-3.66;72.28
83448;BME280;73376;45.472;-73.568;2024-01-25T05:59:04;101849.38;;;-3.54;72.27
83448;BME280;73376;45.472;-73.568;2024-01-25T06:01:30;101793.31;;;-3.83;72.37
83448;BME280;73376;45.472;-73.568;2024-01-25T06:03:56;101822.00;;;-3.58;72.40
83448;BME280;73376;45.472;-73.568;2024-01-25T06:06:22;101834.00;;;-3.50;72.44
83448;BME280;73376;45.472;-73.568;2024-01-25T06:08:48;101803.69;;;-3.64;72.49
83448;BME280;73376;45.472;-73.568;2024-01-25T06:11:18;101819.72;;;-3.49;72.59
83448;BME280;73376;45.472;-73.568;2024-01-25T06:13:44;101803.28;;;-3.58;72.69
83448;BME280;73376;45.472;-73.568;2024-01-25T06:16:13;101793.88;;;-3.63;72.47
83448;BME280;73376;45.472;-73.568;2024-01-25T06:18:39;101809.41;;;-3.55;72.50
83448;BME280;73376;45.472;-73.568;2024-01-25T06:21:05;101793.38;;;-3.55;72.68
83448;BME280;73376;45.472;-73.568;2024-01-25T06:23:31;101814.38;;;-3.49;72.45
83448;BME280;73376;45.472;-73.568;2024-01-25T06:25:57;101799.97;;;-3.61;72.34
83448;BME280;73376;45.472;-73.568;2024-01-25T06:28:23;101804.53;;;-3.49;72.60
83448;BME280;73376;45.472;-73.568;2024-01-25T06:30:51;101807.09;;;-3.47;72.67
83448;BME280;73376;45.472;-73.568;2024-01-25T06:33:17;101827.13;;;-3.40;72.41
83448;BME280;73376;45.472;-73.568;2024-01-25T06:35:43;101817.91;;;-3.49;72.78
83448;BME280;73376;45.472;-73.568;2024-01-25T06:38:09;101842.88;;;-3.36;72.43
83448;BME280;73376;45.472;-73.568;2024-01-25T06:40:35;101811.50;;;-3.46;72.46
83448;BME280;73376;45.472;-73.568;2024-01-25T06:43:03;101829.31;;;-3.33;72.60
83448;BME280;73376;45.472;-73.568;2024-01-25T06:45:29;101825.75;;;-3.33;72.57
83448;BME280;73376;45.472;-73.568;2024-01-25T06:47:55;101839.78;;;-3.29;72.62
83448;BME280;73376;45.472;-73.568;2024-01-25T06:50:21;101812.03;;;-3.41;72.53
83448;BME280;73376;45.472;-73.568;2024-01-25T06:52:47;101823.00;;;-3.31;72.72
83448;BME280;73376;45.472;-73.568;2024-01-25T06:55:13;101832.66;;;-3.29;72.54
83448;BME280;73376;45.472;-73.568;2024-01-25T06:57:39;101836.09;;;-3.41;72.48
83448;BME280;73376;45.472;-73.568;2024-01-25T07:00:06;101840.75;;;-3.30;72.64
83448;BME280;73376;45.472;-73.568;2024-01-25T07:02:32;101828.53;;;-3.35;72.72
83448;BME280;73376;45.472;-73.568;2024-01-25T07:04:58;101834.03;;;-3.23;72.61
83448;BME280;73376;45.472;-73.568;2024-01-25T07:07:24;101805.44;;;-3.36;72.63
83448;BME280;73376;45.472;-73.568;2024-01-25T07:09:52;101808.94;;;-3.21;72.67
83448;BME280;73376;45.472;-73.568;2024-01-25T07:12:18;101798.53;;;-3.25;73.00
83448;BME280;73376;45.472;-73.568;2024-01-25T07:14:46;101785.63;;;-3.19;72.62
83448;BME280;73376;45.472;-73.568;2024-01-25T07:17:12;101806.38;;;-3.10;72.61
83448;BME280;73376;45.472;-73.568;2024-01-25T07:19:38;101801.94;;;-3.09;72.77
83448;BME280;73376;45.472;-73.568;2024-01-25T07:22:06;101800.00;;;-3.07;72.75
83448;BME280;73376;45.472;-73.568;2024-01-25T07:24:32;101751.88;;;-3.34;72.57
83448;BME280;73376;45.472;-73.568;2024-01-25T07:26:58;101759.16;;;-3.23;72.84
83448;BME280;73376;45.472;-73.568;2024-01-25T07:29:24;101797.00;;;-3.02;72.83
83448;BME280;73376;45.472;-73.568;2024-01-25T07:31:52;101792.56;;;-3.16;72.68
83448;BME280;73376;45.472;-73.568;2024-01-25T07:34:18;101789.16;;;-3.18;72.96
83448;BME280;73376;45.472;-73.568;2024-01-25T07:36:44;101793.38;;;-3.01;72.87
83448;BME280;73376;45.472;-73.568;2024-01-25T07:39:12;101789.66;;;-2.99;72.75
83448;BME280;73376;45.472;-73.568;2024-01-25T07:41:38;101765.97;;;-3.05;72.90
83448;BME280;73376;45.472;-73.568;2024-01-25T07:44:04;101785.81;;;-2.95;72.83
83448;BME280;73376;45.472;-73.568;2024-01-25T07:46:31;101784.84;;;-2.94;72.65
83448;BME280;73376;45.472;-73.568;2024-01-25T07:48:57;101776.38;;;-3.00;72.89
83448;BME280;73376;45.472;-73.568;2024-01-25T07:51:28;101781.41;;;-2.96;72.90
83448;BME280;73376;45.472;-73.568;2024-01-25T07:53:54;101798.88;;;-2.90;72.66
83448;BME280;73376;45.472;-73.568;2024-01-25T07:56:20;101792.53;;;-3.02;72.83
83448;BME280;73376;45.472;-73.568;2024-01-25T07:58:50;101820.91;;;-2.87;72.81
83448;BME280;73376;45.472;-73.568;2024-01-25T08:01:20;101825.31;;;-2.86;72.82
83448;BME280;73376;45.472;-73.568;2024-01-25T08:03:48;101824.34;;;-2.84;72.96
83448;BME280;73376;45.472;-73.568;2024-01-25T08:06:14;101808.59;;;-2.89;72.89
83448;BME280;73376;45.472;-73.568;2024-01-25T08:08:40;101817.63;;;-2.77;72.77
83448;BME280;73376;45.472;-73.568;2024-01-25T08:11:07;101804.88;;;-2.87;72.99
83448;BME280;73376;45.472;-73.568;2024-01-25T08:13:33;101796.44;;;-2.80;72.96
83448;BME280;73376;45.472;-73.568;2024-01-25T08:15:59;101794.84;;;-2.70;73.14
83448;BME280;73376;45.472;-73.568;2024-01-25T08:18:25;101798.38;;;-2.70;72.79
83448;BME280;73376;45.472;-73.568;2024-01-25T08:20:54;101791.00;;;-2.66;73.20
83448;BME280;73376;45.472;-73.568;2024-01-25T08:23:23;101786.50;;;-2.66;72.84
83448;BME280;73376;45.472;-73.568;2024-01-25T08:25:48;101758.44;;;-2.73;72.92
83448;BME280;73376;45.472;-73.568;2024-01-25T08:28:14;101784.66;;;-2.65;72.91
83448;BME280;73376;45.472;-73.568;2024-01-25T08:30:41;101774.84;;;-2.65;72.87
83448;BME280;73376;45.472;-73.568;2024-01-25T08:33:07;101723.50;;;-2.97;72.96
83448;BME280;73376;45.472;-73.568;2024-01-25T08:35:33;101783.59;;;-2.63;73.02
83448;BME280;73376;45.472;-73.568;2024-01-25T08:37:59;101788.00;;;-2.62;72.98
83448;BME280;73376;45.472;-73.568;2024-01-25T08:40:29;101792.69;;;-2.65;72.69
83448;BME280;73376;45.472;-73.568;2024-01-25T08:42:57;101772.78;;;-2.74;72.81
83448;BME280;73376;45.472;-73.568;2024-01-25T08:45:23;101773.44;;;-2.70;72.74
83448;BME280;73376;45.472;-73.568;2024-01-25T08:47:49;101766.38;;;-2.71;72.80
83448;BME280;73376;45.472;-73.568;2024-01-25T08:50:17;101776.88;;;-2.55;73.02
83448;BME280;73376;45.472;-73.568;2024-01-25T08:52:43;101792.06;;;-2.56;72.78
83448;BME280;73376;45.472;-73.568;2024-01-25T08:55:09;101792.94;;;-2.55;72.95
83448;BME280;73376;45.472;-73.568;2024-01-25T08:57:36;101794.97;;;-2.59;72.92
83448;BME280;73376;45.472;-73.568;2024-01-25T09:00:02;101768.94;;;-2.70;72.68
83448;BME280;73376;45.472;-73.568;2024-01-25T09:02:34;101775.50;;;-2.61;72.88
83448;BME280;73376;45.472;-73.568;2024-01-25T09:05:00;101777.84;;;-2.56;72.79
83448;BME280;73376;45.472;-73.568;2024-01-25T09:07:25;101744.06;;;-2.72;72.66
83448;BME280;73376;45.472;-73.568;2024-01-25T09:09:52;101764.78;;;-2.61;72.44
83448;BME280;73376;45.472;-73.568;2024-01-25T09:12:20;101778.69;;;-2.56;72.88
83448;BME280;73376;45.472;-73.568;2024-01-25T09:14:46;101773.25;;;-2.54;72.82
83448;BME280;73376;45.472;-73.568;2024-01-25T09:17:12;101776.78;;;-2.54;72.71
83448;BME280;73376;45.472;-73.568;2024-01-25T09:19:39;101770.22;;;-2.63;72.83
83448;BME280;73376;45.472;-73.568;2024-01-25T09:22:06;101770.25;;;-2.50;72.79
83448;BME280;73376;45.472;-73.568;2024-01-25T09:24:33;101757.47;;;-2.59;72.62
83448;BME280;73376;45.472;-73.568;2024-01-25T09:27:02;101776.25;;;-2.46;72.79
83448;BME280;73376;45.472;-73.568;2024-01-25T09:29:28;101770.25;;;-2.50;72.42
83448;BME280;73376;45.472;-73.568;2024-01-25T09:31:54;101776.25;;;-2.46;72.43
83448;BME280;73376;45.472;-73.568;2024-01-25T09:34:20;101760.72;;;-2.54;72.77
83448;BME280;73376;45.472;-73.568;2024-01-25T09:36:47;101775.91;;;-2.42;72.74
83448;BME280;73376;45.472;-73.568;2024-01-25T09:39:13;101757.47;;;-2.59;72.56
83448;BME280;73376;45.472;-73.568;2024-01-25T09:41:43;101822.19;;;-2.40;72.75
83448;BME280;73376;45.472;-73.568;2024-01-25T09:44:09;101802.03;;;-2.45;72.53
83448;BME280;73376;45.472;-73.568;2024-01-25T09:46:35;101787.13;;;-2.62;72.63
83448;BME280;73376;45.472;-73.568;2024-01-25T09:49:04;101810.63;;;-2.40;72.42
83448;BME280;73376;45.472;-73.568;2024-01-25T09:51:39;101808.50;;;-2.48;72.60
83448;BME280;73376;45.472;-73.568;2024-01-25T09:54:05;101841.91;;;-2.41;72.54
83448;BME280;73376;45.472;-73.568;2024-01-25T09:56:32;101837.50;;;-2.42;72.49
83448;BME280;73376;45.472;-73.568;2024-01-25T09:58:59;101852.41;;;-2.38;72.52
83448;BME280;73376;45.472;-73.568;2024-01-25T10:01:26;101837.06;;;-2.48;72.62
83448;BME280;73376;45.472;-73.568;2024-01-25T10:03:52;101861.19;;;-2.35;72.49
83448;BME280;73376;45.472;-73.568;2024-01-25T10:06:18;101853.91;;;-2.33;72.30
83448;BME280;73376;45.472;-73.568;2024-01-25T10:08:46;101826.06;;;-2.44;72.29
83448;BME280;73376;45.472;-73.568;2024-01-25T10:11:12;101839.66;;;-2.34;72.47
83448;BME280;73376;45.472;-73.568;2024-01-25T10:13:43;101833.88;;;-2.41;72.47
83448;BME280;73376;45.472;-73.568;2024-01-25T10:16:13;101847.50;;;-2.31;72.85
83448;BME280;73376;45.472;-73.568;2024-01-25T10:18:40;101851.03;;;-2.30;72.50
83448;BME280;73376;45.472;-73.568;2024-01-25T10:21:09;101845.13;;;-2.35;72.33
83448;BME280;73376;45.472;-73.568;2024-01-25T10:23:35;101858.28;;;-2.32;72.33
83448;BME280;73376;45.472;-73.568;2024-01-25T10:26:03;101835.25;;;-2.48;72.35
83448;BME280;73376;45.472;-73.568;2024-01-25T10:28:29;101858.72;;;-2.39;72.47
83448;BME280;73376;45.472;-73.568;2024-01-25T10:30:59;101875.53;;;-2.36;72.42
83448;BME280;73376;45.472;-73.568;2024-01-25T10:33:26;101818.81;;;-2.69;72.31
83448;BME280;73376;45.472;-73.568;2024-01-25T10:35:55;101869.13;;;-2.34;72.55
83448;BME280;73376;45.472;-73.568;2024-01-25T10:38:31;101862.69;;;-2.44;72.44
83448;BME280;73376;45.472;-73.568;2024-01-25T10:41:01;101833.81;;;-2.66;72.32
83448;BME280;73376;45.472;-73.568;2024-01-25T10:43:28;101888.38;;;-2.42;72.34
83448;BME280;73376;45.472;-73.568;2024-01-25T10:45:58;101884.75;;;-2.41;72.46
83448;BME280;73376;45.472;-73.568;2024-01-25T10:48:28;101891.94;;;-2.41;72.42
83448;BME280;73376;45.472;-73.568;2024-01-25T10:50:57;101875.88;;;-2.41;72.55
83448;BME280;73376;45.472;-73.568;2024-01-25T10:53:30;101858.59;;;-2.50;72.42
83448;BME280;73376;45.472;-73.568;2024-01-25T10:55:58;101860.72;;;-2.55;72.33
83448;BME280;73376;45.472;-73.568;2024-01-25T10:58:29;101872.50;;;-2.45;72.27
83448;BME280;73376;45.472;-73.568;2024-01-25T11:00:55;101888.81;;;-2.35;72.52
83448;BME280;73376;45.472;-73.568;2024-01-25T11:03:30;101890.63;;;-2.35;72.31
83448;BME280;73376;45.472;-73.568;2024-01-25T11:06:06;101891.41;;;-2.33;72.54
83448;BME280;73376;45.472;-73.568;2024-01-25T11:08:35;101781.72;;;-3.00;72.12
83448;BME280;73376;45.472;-73.568;2024-01-25T11:11:05;101900.28;;;-2.33;72.35
83448;BME280;73376;45.472;-73.568;2024-01-25T11:13:33;101899.66;;;-2.36;72.40
83448;BME280;73376;45.472;-73.568;2024-01-25T11:16:13;101919.69;;;-2.29;72.42
83448;BME280;73376;45.472;-73.568;2024-01-25T11:18:55;101924.00;;;-2.27;72.23
83448;BME280;73376;45.472;-73.568;2024-01-25T11:21:41;101911.25;;;-2.23;72.29
83448;BME280;73376;45.472;-73.568;2024-01-25T11:24:24;101887.22;;;-2.38;72.18
83448;BME280;73376;45.472;-73.568;2024-01-25T11:26:54;101917.00;;;-2.29;72.33
83448;BME280;73376;45.472;-73.568;2024-01-25T11:29:21;101932.69;;;-2.23;72.29
83448;BME280;73376;45.472;-73.568;2024-01-25T11:31:50;101925.25;;;-2.32;72.31
83448;BME280;73376;45.472;-73.568;2024-01-25T11:34:17;101920.09;;;-2.35;72.66
83448;BME280;73376;45.472;-73.568;2024-01-25T11:36:46;101940.38;;;-2.19;72.22
83448;BME280;73376;45.472;-73.568;2024-01-25T11:39:14;101948.75;;;-2.23;72.34
83448;BME280;73376;45.472;-73.568;2024-01-25T11:41:42;101927.28;;;-2.36;72.23
83448;BME280;73376;45.472;-73.568;2024-01-25T11:44:09;101950.66;;;-2.25;72.20
83448;BME280;73376;45.472;-73.568;2024-01-25T11:46:35;101961.09;;;-2.21;72.28
83448;BME280;73376;45.472;-73.568;2024-01-25T11:49:01;101947.72;;;-2.35;72.21
83448;BME280;73376;45.472;-73.568;2024-01-25T11:51:27;101947.44;;;-2.30;72.21
83448;BME280;73376;45.472;-73.568;2024-01-25T11:53:53;101945.06;;;-2.35;72.18
83448;BME280;73376;45.472;-73.568;2024-01-25T11:56:39;101978.09;;;-2.22;72.17
83448;BME280;73376;45.472;-73.568;2024-01-25T11:59:07;101989.56;;;-2.20;72.52
83448;BME280;73376;45.472;-73.568;2024-01-25T12:01:34;101994.16;;;-2.22;72.03
83448;BME280;73376;45.472;-73.568;2024-01-25T12:04:00;101978.16;;;-2.36;72.14
83448;BME280;73376;45.472;-73.568;2024-01-25T12:06:27;102008.63;;;-2.24;72.18
83448;BME280;73376;45.472;-73.568;2024-01-25T12:09:06;102023.22;;;-2.16;72.32
83448;BME280;73376;45.472;-73.568;2024-01-25T12:11:34;102026.38;;;-2.09;72.32
83448;BME280;73376;45.472;-73.568;2024-01-25T12:14:00;101988.34;;;-2.28;72.03
83448;BME280;73376;45.472;-73.568;2024-01-25T12:16:28;102036.22;;;-2.09;72.51
83448;BME280;73376;45.472;-73.568;2024-01-25T12:18:54;102046.09;;;-2.10;72.69
83448;BME280;73376;45.472;-73.568;2024-01-25T12:21:20;102029.66;;;-2.18;72.63
83448;BME280;73376;45.472;-73.568;2024-01-25T12:23:46;102045.44;;;-2.13;72.78
83448;BME280;73376;45.472;-73.568;2024-01-25T12:26:12;102044.47;;;-2.12;72.73
83448;BME280;73376;45.472;-73.568;2024-01-25T12:28:41;102044.34;;;-2.11;72.67
83448;BME280;73376;45.472;-73.568;2024-01-25T12:31:07;102052.38;;;-2.11;72.55